sensor_id;sensor_type;location;lat;lon;timestamp;P1;durP1;ratioP1;P2;durP2;ratioP2
5867;SDS011;2960;49.142;7.768;2022-11-15T00:02:27;11.07;;;4.83;;
5867;SDS011;2960;49.142;7.768;2022-11-15T00:04:54;11.33;;;5.00;;
5867;SDS011;2960;49.142;7.768;2022-11-15T00:07:30;11.87;;;5.00;;
5867;SDS011;2960;49.142;7.768;2022-11-15T00:09:57;11.00;;;4.77;;
5867;SDS011;2960;49.142;7.768;2022-11-15T00:12:24;9.80;;;4.27;;
5867;SDS011;2960;49.142;7.768;2022-11-15T00:14:53;11.23;;;4.70;;
5867;SDS011;2960;49.142;7.768;2022-11-15T00:17:20;11.20;;;4.73;;
5867;SDS011;2960;49.142;7.768;2022-11-15T00:19:48;11.70;;;5.43;;
5867;SDS011;2960;49.142;7.768;2022-11-15T00:22:15;11.53;;;4.30;;
5867;SDS011;2960;49.142;7.768;2022-11-15T00:24:42;10.40;;;4.30;;
5867;SDS011;2960;49.142;7.768;2022-11-15T00:27:09;11.97;;;5.00;;
5867;SDS011;2960;49.142;7.768;2022-11-15T00:29:37;10.90;;;4.60;;
5867;SDS011;2960;49.142;7.768;2022-11-15T00:32:08;10.33;;;4.60;;
5867;SDS011;2960;49.142;7.768;2022-11-15T00:34:35;10.30;;;4.43;;
5867;SDS011;2960;49.142;7.768;2022-11-15T00:37:04;10.03;;;4.30;;
5867;SDS011;2960;49.142;7.768;2022-11-15T00:39:35;10.70;;;4.57;;
5867;SDS011;2960;49.142;7.768;2022-11-15T00:42:02;9.87;;;4.40;;
5867;SDS011;2960;49.142;7.768;2022-11-15T00:44:29;10.33;;;4.20;;
5867;SDS011;2960;49.142;7.768;2022-11-15T00:46:56;10.27;;;4.27;;
5867;SDS011;2960;49.142;7.768;2022-11-15T00:49:24;10.70;;;4.60;;
5867;SDS011;2960;49.142;7.768;2022-11-15T00:51:51;10.27;;;4.67;;
5867;SDS011;2960;49.142;7.768;2022-11-15T00:54:19;10.27;;;4.23;;
5867;SDS011;2960;49.142;7.768;2022-11-15T00:56:46;10.77;;;4.90;;
5867;SDS011;2960;49.142;7.768;2022-11-15T00:59:13;11.00;;;4.40;;
5867;SDS011;2960;49.142;7.768;2022-11-15T01:01:40;11.27;;;4.50;;
5867;SDS011;2960;49.142;7.768;2022-11-15T01:04:07;11.60;;;4.70;;
5867;SDS011;2960;49.142;7.768;2022-11-15T01:06:34;9.50;;;4.30;;
5867;SDS011;2960;49.142;7.768;2022-11-15T01:09:01;11.00;;;4.90;;
5867;SDS011;2960;49.142;7.768;2022-11-15T01:11:30;10.00;;;4.33;;
5867;SDS011;2960;49.142;7.768;2022-11-15T01:13:57;9.90;;;4.30;;
5867;SDS011;2960;49.142;7.768;2022-11-15T01:16:24;10.53;;;4.03;;
5867;SDS011;2960;49.142;7.768;2022-11-15T01:18:51;9.70;;;4.10;;
5867;SDS011;2960;49.142;7.768;2022-11-15T01:21:21;9.80;;;4.40;;
5867;SDS011;2960;49.142;7.768;2022-11-15T01:23:48;9.77;;;4.37;;
5867;SDS011;2960;49.142;7.768;2022-11-15T01:26:18;11.20;;;4.70;;
5867;SDS011;2960;49.142;7.768;2022-11-15T01:28:47;9.93;;;4.27;;
5867;SDS011;2960;49.142;7.768;2022-11-15T01:31:15;10.20;;;4.60;;
5867;SDS011;2960;49.142;7.768;2022-11-15T01:33:44;11.03;;;4.50;;
5867;SDS011;2960;49.142;7.768;2022-11-15T01:36:13;10.50;;;4.57;;
5867;SDS011;2960;49.142;7.768;2022-11-15T01:38:43;10.60;;;4.37;;
5867;SDS011;2960;49.142;7.768;2022-11-15T01:41:14;10.07;;;4.77;;
5867;SDS011;2960;49.142;7.768;2022-11-15T01:43:43;9.70;;;4.40;;
5867;SDS011;2960;49.142;7.768;2022-11-15T01:46:22;10.50;;;4.70;;
5867;SDS011;2960;49.142;7.768;2022-11-15T01:48:55;10.63;;;4.07;;
5867;SDS011;2960;49.142;7.768;2022-11-15T01:51:28;11.27;;;4.83;;
5867;SDS011;2960;49.142;7.768;2022-11-15T01:53:58;10.20;;;4.30;;
5867;SDS011;2960;49.142;7.768;2022-11-15T01:56:30;9.90;;;4.13;;
5867;SDS011;2960;49.142;7.768;2022-11-15T01:59:03;9.90;;;4.30;;
5867;SDS011;2960;49.142;7.768;2022-11-15T02:01:34;11.00;;;4.83;;
5867;SDS011;2960;49.142;7.768;2022-11-15T02:04:02;9.60;;;4.20;;
5867;SDS011;2960;49.142;7.768;2022-11-15T02:06:36;9.43;;;4.20;;
5867;SDS011;2960;49.142;7.768;2022-11-15T02:09:04;9.60;;;4.20;;
5867;SDS011;2960;49.142;7.768;2022-11-15T02:11:31;10.53;;;4.63;;
5867;SDS011;2960;49.142;7.768;2022-11-15T02:13:58;9.90;;;4.53;;
5867;SDS011;2960;49.142;7.768;2022-11-15T02:16:28;9.70;;;4.30;;
5867;SDS011;2960;49.142;7.768;2022-11-15T02:19:08;9.27;;;4.00;;
5867;SDS011;2960;49.142;7.768;2022-11-15T02:21:49;9.60;;;4.17;;
5867;SDS011;2960;49.142;7.768;2022-11-15T02:27:38;10.17;;;4.33;;
5867;SDS011;2960;49.142;7.768;2022-11-15T02:30:24;10.53;;;4.70;;
5867;SDS011;2960;49.142;7.768;2022-11-15T02:32:58;10.17;;;4.30;;
5867;SDS011;2960;49.142;7.768;2022-11-15T02:35:37;10.23;;;4.17;;
5867;SDS011;2960;49.142;7.768;2022-11-15T02:38:13;10.50;;;4.27;;
5867;SDS011;2960;49.142;7.768;2022-11-15T02:40:50;9.50;;;4.27;;
5867;SDS011;2960;49.142;7.768;2022-11-15T02:43:21;9.97;;;4.20;;
5867;SDS011;2960;49.142;7.768;2022-11-15T02:46:16;9.80;;;4.50;;
5867;SDS011;2960;49.142;7.768;2022-11-15T02:49:09;9.83;;;4.20;;
5867;SDS011;2960;49.142;7.768;2022-11-15T02:51:38;10.67;;;4.50;;
5867;SDS011;2960;49.142;7.768;2022-11-15T02:54:09;9.73;;;4.27;;
5867;SDS011;2960;49.142;7.768;2022-11-15T02:56:39;10.70;;;4.53;;
5867;SDS011;2960;49.142;7.768;2022-11-15T02:59:13;10.30;;;4.27;;
5867;SDS011;2960;49.142;7.768;2022-11-15T03:02:18;10.40;;;4.80;;
5867;SDS011;2960;49.142;7.768;2022-11-15T03:04:58;10.43;;;4.50;;
5867;SDS011;2960;49.142;7.768;2022-11-15T03:07:32;11.50;;;4.20;;
5867;SDS011;2960;49.142;7.768;2022-11-15T03:10:07;10.10;;;4.37;;
5867;SDS011;2960;49.142;7.768;2022-11-15T03:12:40;9.57;;;4.00;;
5867;SDS011;2960;49.142;7.768;2022-11-15T03:15:14;10.67;;;4.60;;
5867;SDS011;2960;49.142;7.768;2022-11-15T03:17:51;9.40;;;4.00;;
5867;SDS011;2960;49.142;7.768;2022-11-15T03:20:22;10.00;;;4.53;;
5867;SDS011;2960;49.142;7.768;2022-11-15T03:22:52;10.00;;;4.30;;
5867;SDS011;2960;49.142;7.768;2022-11-15T03:25:24;9.70;;;4.00;;
5867;SDS011;2960;49.142;7.768;2022-11-15T03:27:55;9.73;;;4.30;;
5867;SDS011;2960;49.142;7.768;2022-11-15T03:30:25;10.33;;;4.43;;
5867;SDS011;2960;49.142;7.768;2022-11-15T03:32:54;10.30;;;4.50;;
5867;SDS011;2960;49.142;7.768;2022-11-15T03:35:24;9.57;;;4.30;;
5867;SDS011;2960;49.142;7.768;2022-11-15T03:37:56;9.37;;;4.00;;
5867;SDS011;2960;49.142;7.768;2022-11-15T03:40:30;9.80;;;4.50;;
5867;SDS011;2960;49.142;7.768;2022-11-15T03:43:04;9.67;;;4.20;;
5867;SDS011;2960;49.142;7.768;2022-11-15T03:45:39;10.00;;;4.17;;
5867;SDS011;2960;49.142;7.768;2022-11-15T03:48:12;10.70;;;4.33;;
5867;SDS011;2960;49.142;7.768;2022-11-15T03:50:42;9.47;;;4.07;;
5867;SDS011;2960;49.142;7.768;2022-11-15T03:53:11;10.67;;;4.30;;
5867;SDS011;2960;49.142;7.768;2022-11-15T03:55:39;9.33;;;4.10;;
5867;SDS011;2960;49.142;7.768;2022-11-15T03:58:06;9.83;;;4.20;;
5867;SDS011;2960;49.142;7.768;2022-11-15T04:00:33;10.53;;;3.80;;
5867;SDS011;2960;49.142;7.768;2022-11-15T04:03:00;9.70;;;3.90;;
5867;SDS011;2960;49.142;7.768;2022-11-15T04:05:29;9.37;;;3.60;;
5867;SDS011;2960;49.142;7.768;2022-11-15T04:07:56;9.90;;;4.10;;
5867;SDS011;2960;49.142;7.768;2022-11-15T04:10:23;10.07;;;3.70;;
5867;SDS011;2960;49.142;7.768;2022-11-15T04:12:50;9.57;;;3.80;;
5867;SDS011;2960;49.142;7.768;2022-11-15T04:15:17;9.93;;;3.90;;
5867;SDS011;2960;49.142;7.768;2022-11-15T04:17:48;9.80;;;3.70;;
5867;SDS011;2960;49.142;7.768;2022-11-15T04:20:17;9.97;;;3.87;;
5867;SDS011;2960;49.142;7.768;2022-11-15T04:23:06;9.40;;;3.70;;
5867;SDS011;2960;49.142;7.768;2022-11-15T04:25:54;9.50;;;3.60;;
5867;SDS011;2960;49.142;7.768;2022-11-15T04:28:24;10.10;;;3.87;;
5867;SDS011;2960;49.142;7.768;2022-11-15T04:30:51;10.60;;;3.97;;
5867;SDS011;2960;49.142;7.768;2022-11-15T04:33:18;8.90;;;3.40;;
5867;SDS011;2960;49.142;7.768;2022-11-15T04:35:46;10.87;;;3.93;;
5867;SDS011;2960;49.142;7.768;2022-11-15T04:38:35;9.57;;;4.10;;
5867;SDS011;2960;49.142;7.768;2022-11-15T04:41:02;10.53;;;4.57;;
5867;SDS011;2960;49.142;7.768;2022-11-15T04:43:29;10.23;;;4.07;;
5867;SDS011;2960;49.142;7.768;2022-11-15T04:45:56;10.10;;;4.10;;
5867;SDS011;2960;49.142;7.768;2022-11-15T04:48:23;12.53;;;4.50;;
5867;SDS011;2960;49.142;7.768;2022-11-15T04:50:50;9.70;;;3.80;;
5867;SDS011;2960;49.142;7.768;2022-11-15T04:53:17;10.00;;;4.20;;
5867;SDS011;2960;49.142;7.768;2022-11-15T04:55:46;9.80;;;4.03;;
5867;SDS011;2960;49.142;7.768;2022-11-15T04:58:13;10.47;;;4.23;;
5867;SDS011;2960;49.142;7.768;2022-11-15T05:00:40;9.80;;;4.07;;
5867;SDS011;2960;49.142;7.768;2022-11-15T05:03:08;10.13;;;4.03;;
5867;SDS011;2960;49.142;7.768;2022-11-15T05:05:53;10.30;;;4.10;;
5867;SDS011;2960;49.142;7.768;2022-11-15T05:08:20;10.00;;;4.03;;
5867;SDS011;2960;49.142;7.768;2022-11-15T05:10:48;10.43;;;4.10;;
5867;SDS011;2960;49.142;7.768;2022-11-15T05:13:15;10.20;;;4.10;;
5867;SDS011;2960;49.142;7.768;2022-11-15T05:15:43;10.10;;;3.90;;
5867;SDS011;2960;49.142;7.768;2022-11-15T05:18:10;9.80;;;4.00;;
5867;SDS011;2960;49.142;7.768;2022-11-15T05:20:37;10.80;;;3.80;;
5867;SDS011;2960;49.142;7.768;2022-11-15T05:23:04;9.80;;;3.73;;
5867;SDS011;2960;49.142;7.768;2022-11-15T05:25:31;10.10;;;4.07;;
5867;SDS011;2960;49.142;7.768;2022-11-15T05:28:00;10.30;;;3.87;;
5867;SDS011;2960;49.142;7.768;2022-11-15T05:30:27;9.80;;;3.90;;
5867;SDS011;2960;49.142;7.768;2022-11-15T05:32:54;9.50;;;3.87;;
5867;SDS011;2960;49.142;7.768;2022-11-15T05:35:22;10.33;;;3.57;;
5867;SDS011;2960;49.142;7.768;2022-11-15T05:37:57;10.07;;;4.00;;
5867;SDS011;2960;49.142;7.768;2022-11-15T05:40:25;10.00;;;4.00;;
5867;SDS011;2960;49.142;7.768;2022-11-15T05:42:52;10.77;;;4.20;;
5867;SDS011;2960;49.142;7.768;2022-11-15T05:45:21;10.37;;;4.40;;
5867;SDS011;2960;49.142;7.768;2022-11-15T05:47:48;10.40;;;4.00;;
5867;SDS011;2960;49.142;7.768;2022-11-15T05:50:16;9.90;;;3.47;;
5867;SDS011;2960;49.142;7.768;2022-11-15T05:52:44;10.70;;;4.50;;
5867;SDS011;2960;49.142;7.768;2022-11-15T05:55:12;10.57;;;3.97;;
5867;SDS011;2960;49.142;7.768;2022-11-15T05:57:40;10.70;;;4.13;;
5867;SDS011;2960;49.142;7.768;2022-11-15T06:00:07;10.40;;;4.10;;
5867;SDS011;2960;49.142;7.768;2022-11-15T06:02:37;10.17;;;4.03;;
5867;SDS011;2960;49.142;7.768;2022-11-15T06:05:04;10.17;;;3.90;;
5867;SDS011;2960;49.142;7.768;2022-11-15T06:07:32;10.20;;;3.90;;
5867;SDS011;2960;49.142;7.768;2022-11-15T06:09:59;10.77;;;3.87;;
5867;SDS011;2960;49.142;7.768;2022-11-15T06:12:26;10.97;;;3.67;;
5867;SDS011;2960;49.142;7.768;2022-11-15T06:14:53;10.00;;;3.90;;
5867;SDS011;2960;49.142;7.768;2022-11-15T06:17:20;11.93;;;3.80;;
5867;SDS011;2960;49.142;7.768;2022-11-15T06:19:48;10.13;;;3.87;;
5867;SDS011;2960;49.142;7.768;2022-11-15T06:22:15;9.40;;;3.40;;
5867;SDS011;2960;49.142;7.768;2022-11-15T06:24:42;9.40;;;3.70;;
5867;SDS011;2960;49.142;7.768;2022-11-15T06:27:10;11.43;;;4.00;;
5867;SDS011;2960;49.142;7.768;2022-11-15T06:29:37;9.40;;;3.60;;
5867;SDS011;2960;49.142;7.768;2022-11-15T06:32:04;10.13;;;3.90;;
5867;SDS011;2960;49.142;7.768;2022-11-15T06:34:31;9.87;;;3.43;;
5867;SDS011;2960;49.142;7.768;2022-11-15T06:36:59;10.43;;;3.80;;
5867;SDS011;2960;49.142;7.768;2022-11-15T06:39:26;9.57;;;3.50;;
5867;SDS011;2960;49.142;7.768;2022-11-15T06:41:54;9.87;;;3.80;;
5867;SDS011;2960;49.142;7.768;2022-11-15T06:44:21;9.83;;;3.60;;
5867;SDS011;2960;49.142;7.768;2022-11-15T06:46:48;11.27;;;4.27;;
5867;SDS011;2960;49.142;7.768;2022-11-15T06:49:15;10.73;;;3.90;;
5867;SDS011;2960;49.142;7.768;2022-11-15T06:51:42;11.13;;;3.67;;
5867;SDS011;2960;49.142;7.768;2022-11-15T06:54:11;10.03;;;4.00;;
5867;SDS011;2960;49.142;7.768;2022-11-15T06:56:38;9.20;;;3.43;;
5867;SDS011;2960;49.142;7.768;2022-11-15T06:59:05;9.97;;;3.93;;
5867;SDS011;2960;49.142;7.768;2022-11-15T07:01:32;10.23;;;4.20;;
5867;SDS011;2960;49.142;7.768;2022-11-15T07:03:59;9.50;;;4.00;;
5867;SDS011;2960;49.142;7.768;2022-11-15T07:06:26;11.40;;;4.33;;
5867;SDS011;2960;49.142;7.768;2022-11-15T07:08:53;10.87;;;4.17;;
5867;SDS011;2960;49.142;7.768;2022-11-15T07:11:21;10.83;;;4.00;;
5867;SDS011;2960;49.142;7.768;2022-11-15T07:13:48;10.00;;;3.70;;
5867;SDS011;2960;49.142;7.768;2022-11-15T07:16:15;11.73;;;3.60;;
5867;SDS011;2960;49.142;7.768;2022-11-15T07:18:42;10.00;;;3.60;;
5867;SDS011;2960;49.142;7.768;2022-11-15T07:21:10;9.30;;;3.50;;
5867;SDS011;2960;49.142;7.768;2022-11-15T07:23:37;9.47;;;3.40;;
5867;SDS011;2960;49.142;7.768;2022-11-15T07:26:05;9.80;;;3.90;;
5867;SDS011;2960;49.142;7.768;2022-11-15T07:28:34;10.03;;;3.63;;
5867;SDS011;2960;49.142;7.768;2022-11-15T07:31:02;9.67;;;3.43;;
5867;SDS011;2960;49.142;7.768;2022-11-15T07:33:29;11.70;;;4.00;;
5867;SDS011;2960;49.142;7.768;2022-11-15T07:35:58;11.10;;;4.07;;
5867;SDS011;2960;49.142;7.768;2022-11-15T07:38:27;10.80;;;4.13;;
5867;SDS011;2960;49.142;7.768;2022-11-15T07:40:57;9.80;;;4.20;;
5867;SDS011;2960;49.142;7.768;2022-11-15T07:43:26;10.27;;;4.10;;
5867;SDS011;2960;49.142;7.768;2022-11-15T07:45:55;10.80;;;4.13;;
5867;SDS011;2960;49.142;7.768;2022-11-15T07:48:23;9.90;;;3.90;;
5867;SDS011;2960;49.142;7.768;2022-11-15T07:50:50;18.30;;;4.10;;
5867;SDS011;2960;49.142;7.768;2022-11-15T07:53:17;9.70;;;3.63;;
5867;SDS011;2960;49.142;7.768;2022-11-15T07:55:44;10.40;;;3.73;;
5867;SDS011;2960;49.142;7.768;2022-11-15T07:58:11;10.17;;;4.07;;
5867;SDS011;2960;49.142;7.768;2022-11-15T08:00:39;10.93;;;4.10;;
5867;SDS011;2960;49.142;7.768;2022-11-15T08:03:08;9.80;;;3.80;;
5867;SDS011;2960;49.142;7.768;2022-11-15T08:05:37;11.03;;;3.67;;
5867;SDS011;2960;49.142;7.768;2022-11-15T08:08:06;11.23;;;4.30;;
5867;SDS011;2960;49.142;7.768;2022-11-15T08:10:35;10.13;;;4.20;;
5867;SDS011;2960;49.142;7.768;2022-11-15T08:13:03;10.20;;;3.90;;
5867;SDS011;2960;49.142;7.768;2022-11-15T08:15:33;10.90;;;4.37;;
5867;SDS011;2960;49.142;7.768;2022-11-15T08:18:01;10.53;;;4.53;;
5867;SDS011;2960;49.142;7.768;2022-11-15T08:20:32;10.97;;;4.40;;
5867;SDS011;2960;49.142;7.768;2022-11-15T08:23:00;10.73;;;4.00;;
5867;SDS011;2960;49.142;7.768;2022-11-15T08:25:29;10.03;;;4.20;;
5867;SDS011;2960;49.142;7.768;2022-11-15T08:27:59;12.87;;;4.43;;
5867;SDS011;2960;49.142;7.768;2022-11-15T08:30:27;11.83;;;4.20;;
5867;SDS011;2960;49.142;7.768;2022-11-15T08:32:57;11.53;;;4.20;;
5867;SDS011;2960;49.142;7.768;2022-11-15T08:35:24;10.83;;;4.50;;
5867;SDS011;2960;49.142;7.768;2022-11-15T08:37:53;11.40;;;4.40;;
5867;SDS011;2960;49.142;7.768;2022-11-15T08:40:21;10.53;;;4.30;;
5867;SDS011;2960;49.142;7.768;2022-11-15T08:42:48;10.93;;;3.90;;
5867;SDS011;2960;49.142;7.768;2022-11-15T08:45:15;10.90;;;4.13;;
5867;SDS011;2960;49.142;7.768;2022-11-15T08:47:42;11.53;;;4.23;;
5867;SDS011;2960;49.142;7.768;2022-11-15T08:50:09;11.37;;;4.33;;
5867;SDS011;2960;49.142;7.768;2022-11-15T08:52:36;10.10;;;3.90;;
5867;SDS011;2960;49.142;7.768;2022-11-15T08:55:05;10.67;;;4.30;;
5867;SDS011;2960;49.142;7.768;2022-11-15T08:57:34;10.47;;;3.83;;
5867;SDS011;2960;49.142;7.768;2022-11-15T09:00:01;13.17;;;4.07;;
5867;SDS011;2960;49.142;7.768;2022-11-15T09:02:29;10.40;;;3.93;;
5867;SDS011;2960;49.142;7.768;2022-11-15T09:04:56;10.50;;;4.00;;
5867;SDS011;2960;49.142;7.768;2022-11-15T09:07:24;10.53;;;4.20;;
5867;SDS011;2960;49.142;7.768;2022-11-15T09:09:51;10.00;;;3.80;;
5867;SDS011;2960;49.142;7.768;2022-11-15T09:12:19;11.00;;;4.20;;
5867;SDS011;2960;49.142;7.768;2022-11-15T09:14:46;12.50;;;4.20;;
5867;SDS011;2960;49.142;7.768;2022-11-15T09:17:13;10.33;;;4.00;;
5867;SDS011;2960;49.142;7.768;2022-11-15T09:19:40;11.13;;;4.37;;
5867;SDS011;2960;49.142;7.768;2022-11-15T09:22:07;11.13;;;4.00;;
5867;SDS011;2960;49.142;7.768;2022-11-15T09:24:35;10.27;;;4.13;;
5867;SDS011;2960;49.142;7.768;2022-11-15T09:27:02;10.57;;;4.23;;
5867;SDS011;2960;49.142;7.768;2022-11-15T09:29:30;10.63;;;4.00;;
5867;SDS011;2960;49.142;7.768;2022-11-15T09:31:57;10.87;;;3.80;;
5867;SDS011;2960;49.142;7.768;2022-11-15T09:34:24;10.27;;;3.83;;
5867;SDS011;2960;49.142;7.768;2022-11-15T09:36:52;10.43;;;4.20;;
5867;SDS011;2960;49.142;7.768;2022-11-15T09:39:19;10.30;;;3.63;;
5867;SDS011;2960;49.142;7.768;2022-11-15T09:41:49;10.27;;;3.90;;
5867;SDS011;2960;49.142;7.768;2022-11-15T09:44:37;10.50;;;4.00;;
5867;SDS011;2960;49.142;7.768;2022-11-15T09:47:30;10.07;;;4.10;;
5867;SDS011;2960;49.142;7.768;2022-11-15T09:50:35;10.70;;;4.20;;
5867;SDS011;2960;49.142;7.768;2022-11-15T09:53:08;10.17;;;3.83;;
5867;SDS011;2960;49.142;7.768;2022-11-15T09:55:40;9.87;;;3.67;;
5867;SDS011;2960;49.142;7.768;2022-11-15T09:58:21;10.20;;;3.93;;
5867;SDS011;2960;49.142;7.768;2022-11-15T10:00:58;10.30;;;3.53;;
5867;SDS011;2960;49.142;7.768;2022-11-15T10:03:33;9.90;;;3.63;;
5867;SDS011;2960;49.142;7.768;2022-11-15T10:06:02;9.80;;;3.70;;
5867;SDS011;2960;49.142;7.768;2022-11-15T10:08:35;10.10;;;3.60;;
5867;SDS011;2960;49.142;7.768;2022-11-15T10:11:15;9.80;;;3.30;;
5867;SDS011;2960;49.142;7.768;2022-11-15T10:13:46;10.63;;;4.07;;
5867;SDS011;2960;49.142;7.768;2022-11-15T10:16:21;9.40;;;3.23;;
5867;SDS011;2960;49.142;7.768;2022-11-15T10:19:26;9.70;;;3.30;;
5867;SDS011;2960;49.142;7.768;2022-11-15T10:22:04;9.80;;;3.50;;
5867;SDS011;2960;49.142;7.768;2022-11-15T10:24:45;9.33;;;3.03;;
5867;SDS011;2960;49.142;7.768;2022-11-15T10:27:13;9.80;;;3.30;;
5867;SDS011;2960;49.142;7.768;2022-11-15T10:29:43;10.20;;;4.00;;
5867;SDS011;2960;49.142;7.768;2022-11-15T10:32:14;10.20;;;4.20;;
5867;SDS011;2960;49.142;7.768;2022-11-15T10:34:43;9.50;;;3.20;;
5867;SDS011;2960;49.142;7.768;2022-11-15T10:37:11;9.97;;;3.53;;
5867;SDS011;2960;49.142;7.768;2022-11-15T10:39:38;10.30;;;3.93;;
5867;SDS011;2960;49.142;7.768;2022-11-15T10:42:15;10.17;;;4.03;;
5867;SDS011;2960;49.142;7.768;2022-11-15T10:44:44;11.83;;;4.77;;
5867;SDS011;2960;49.142;7.768;2022-11-15T10:49:59;13.43;;;4.70;;
5867;SDS011;2960;49.142;7.768;2022-11-15T10:52:30;12.00;;;5.20;;
5867;SDS011;2960;49.142;7.768;2022-11-15T10:55:02;11.00;;;4.30;;
5867;SDS011;2960;49.142;7.768;2022-11-15T10:57:48;11.33;;;4.67;;
5867;SDS011;2960;49.142;7.768;2022-11-15T11:00:26;12.10;;;4.80;;
5867;SDS011;2960;49.142;7.768;2022-11-15T11:03:00;11.70;;;4.70;;
5867;SDS011;2960;49.142;7.768;2022-11-15T11:05:31;11.57;;;4.73;;
5867;SDS011;2960;49.142;7.768;2022-11-15T11:08:02;11.17;;;4.70;;
5867;SDS011;2960;49.142;7.768;2022-11-15T11:10:31;11.57;;;4.70;;
5867;SDS011;2960;49.142;7.768;2022-11-15T11:13:12;11.10;;;4.67;;
5867;SDS011;2960;49.142;7.768;2022-11-15T11:15:41;11.10;;;4.40;;
5867;SDS011;2960;49.142;7.768;2022-11-15T11:18:16;11.80;;;4.77;;
5867;SDS011;2960;49.142;7.768;2022-11-15T11:20:50;11.50;;;4.80;;
5867;SDS011;2960;49.142;7.768;2022-11-15T11:23:25;11.10;;;4.30;;
5867;SDS011;2960;49.142;7.768;2022-11-15T11:26:12;11.33;;;4.50;;
5867;SDS011;2960;49.142;7.768;2022-11-15T11:29:02;11.30;;;4.70;;
5867;SDS011;2960;49.142;7.768;2022-11-15T11:31:46;11.00;;;4.47;;
5867;SDS011;2960;49.142;7.768;2022-11-15T11:34:29;11.40;;;4.50;;
5867;SDS011;2960;49.142;7.768;2022-11-15T11:37:12;11.27;;;4.40;;
5867;SDS011;2960;49.142;7.768;2022-11-15T11:39:51;11.20;;;4.10;;
5867;SDS011;2960;49.142;7.768;2022-11-15T11:42:34;11.17;;;3.90;;
5867;SDS011;2960;49.142;7.768;2022-11-15T11:45:14;10.40;;;4.07;;
5867;SDS011;2960;49.142;7.768;2022-11-15T11:47:47;11.70;;;3.90;;
5867;SDS011;2960;49.142;7.768;2022-11-15T11:50:19;11.47;;;3.57;;
5867;SDS011;2960;49.142;7.768;2022-11-15T11:52:53;10.50;;;3.93;;
5867;SDS011;2960;49.142;7.768;2022-11-15T11:55:26;10.60;;;4.00;;
5867;SDS011;2960;49.142;7.768;2022-11-15T11:58:02;10.50;;;4.10;;
5867;SDS011;2960;49.142;7.768;2022-11-15T12:00:38;10.20;;;3.70;;
5867;SDS011;2960;49.142;7.768;2022-11-15T12:03:09;10.40;;;3.93;;
5867;SDS011;2960;49.142;7.768;2022-11-15T12:05:44;10.20;;;3.97;;
5867;SDS011;2960;49.142;7.768;2022-11-15T12:11:08;10.10;;;3.70;;
5867;SDS011;2960;49.142;7.768;2022-11-15T12:13:53;10.13;;;3.80;;
5867;SDS011;2960;49.142;7.768;2022-11-15T12:16:26;10.47;;;3.93;;
5867;SDS011;2960;49.142;7.768;2022-11-15T12:18:56;10.30;;;3.90;;
5867;SDS011;2960;49.142;7.768;2022-11-15T12:21:34;10.20;;;3.70;;
5867;SDS011;2960;49.142;7.768;2022-11-15T12:24:12;10.40;;;4.07;;
5867;SDS011;2960;49.142;7.768;2022-11-15T12:26:46;10.80;;;4.10;;
5867;SDS011;2960;49.142;7.768;2022-11-15T12:29:19;10.00;;;3.83;;
5867;SDS011;2960;49.142;7.768;2022-11-15T12:31:52;10.70;;;4.00;;
5867;SDS011;2960;49.142;7.768;2022-11-15T12:34:35;10.30;;;3.70;;
5867;SDS011;2960;49.142;7.768;2022-11-15T12:40:25;11.67;;;3.80;;
5867;SDS011;2960;49.142;7.768;2022-11-15T12:46:11;13.47;;;3.70;;
5867;SDS011;2960;49.142;7.768;2022-11-15T12:48:47;10.23;;;3.90;;
5867;SDS011;2960;49.142;7.768;2022-11-15T12:51:21;10.10;;;3.50;;
5867;SDS011;2960;49.142;7.768;2022-11-15T12:54:50;10.10;;;3.67;;
5867;SDS011;2960;49.142;7.768;2022-11-15T12:57:33;10.07;;;4.00;;
5867;SDS011;2960;49.142;7.768;2022-11-15T13:03:19;9.70;;;3.23;;
5867;SDS011;2960;49.142;7.768;2022-11-15T13:05:55;10.33;;;3.80;;
5867;SDS011;2960;49.142;7.768;2022-11-15T13:08:45;10.50;;;3.73;;
5867;SDS011;2960;49.142;7.768;2022-11-15T13:17:27;10.10;;;3.80;;
5867;SDS011;2960;49.142;7.768;2022-11-15T13:23:02;10.00;;;3.40;;
5867;SDS011;2960;49.142;7.768;2022-11-15T13:28:41;10.10;;;3.50;;
5867;SDS011;2960;49.142;7.768;2022-11-15T13:31:17;10.03;;;3.90;;
5867;SDS011;2960;49.142;7.768;2022-11-15T13:33:51;10.10;;;3.73;;
5867;SDS011;2960;49.142;7.768;2022-11-15T13:36:20;9.90;;;3.47;;
5867;SDS011;2960;49.142;7.768;2022-11-15T13:38:54;9.97;;;3.80;;
5867;SDS011;2960;49.142;7.768;2022-11-15T13:41:25;9.90;;;3.70;;
5867;SDS011;2960;49.142;7.768;2022-11-15T13:43:56;10.00;;;3.80;;
5867;SDS011;2960;49.142;7.768;2022-11-15T13:46:25;10.10;;;3.33;;
5867;SDS011;2960;49.142;7.768;2022-11-15T13:48:54;9.77;;;3.63;;
5867;SDS011;2960;49.142;7.768;2022-11-15T13:51:35;10.00;;;3.87;;
5867;SDS011;2960;49.142;7.768;2022-11-15T13:54:12;10.00;;;3.73;;
5867;SDS011;2960;49.142;7.768;2022-11-15T13:56:45;9.73;;;3.40;;
5867;SDS011;2960;49.142;7.768;2022-11-15T13:59:19;10.50;;;4.20;;
5867;SDS011;2960;49.142;7.768;2022-11-15T14:01:52;10.50;;;4.20;;
5867;SDS011;2960;49.142;7.768;2022-11-15T14:04:21;10.20;;;4.33;;
5867;SDS011;2960;49.142;7.768;2022-11-15T14:06:52;10.03;;;4.20;;
5867;SDS011;2960;49.142;7.768;2022-11-15T14:09:29;9.97;;;4.00;;
5867;SDS011;2960;49.142;7.768;2022-11-15T14:12:22;10.10;;;4.00;;
5867;SDS011;2960;49.142;7.768;2022-11-15T14:14:54;10.13;;;4.00;;
5867;SDS011;2960;49.142;7.768;2022-11-15T14:17:32;10.00;;;3.90;;
5867;SDS011;2960;49.142;7.768;2022-11-15T14:22:54;10.13;;;3.60;;
5867;SDS011;2960;49.142;7.768;2022-11-15T14:25:23;10.23;;;4.30;;
5867;SDS011;2960;49.142;7.768;2022-11-15T14:28:08;10.27;;;4.40;;
5867;SDS011;2960;49.142;7.768;2022-11-15T14:30:39;10.50;;;4.23;;
5867;SDS011;2960;49.142;7.768;2022-11-15T14:33:18;10.00;;;4.00;;
5867;SDS011;2960;49.142;7.768;2022-11-15T14:35:48;10.00;;;3.70;;
5867;SDS011;2960;49.142;7.768;2022-11-15T14:38:17;9.87;;;3.70;;
5867;SDS011;2960;49.142;7.768;2022-11-15T14:40:44;10.30;;;3.90;;
5867;SDS011;2960;49.142;7.768;2022-11-15T14:43:11;10.40;;;4.07;;
5867;SDS011;2960;49.142;7.768;2022-11-15T14:45:39;10.07;;;4.03;;
5867;SDS011;2960;49.142;7.768;2022-11-15T14:48:07;10.83;;;4.10;;
5867;SDS011;2960;49.142;7.768;2022-11-15T14:50:35;10.80;;;4.40;;
5867;SDS011;2960;49.142;7.768;2022-11-15T14:53:03;10.00;;;4.13;;
5867;SDS011;2960;49.142;7.768;2022-11-15T14:55:33;10.20;;;4.30;;
5867;SDS011;2960;49.142;7.768;2022-11-15T14:58:02;10.07;;;4.00;;
5867;SDS011;2960;49.142;7.768;2022-11-15T15:00:30;10.10;;;4.10;;
5867;SDS011;2960;49.142;7.768;2022-11-15T15:02:57;10.23;;;4.80;;
5867;SDS011;2960;49.142;7.768;2022-11-15T15:05:25;10.33;;;4.30;;
5867;SDS011;2960;49.142;7.768;2022-11-15T15:07:57;10.23;;;4.17;;
5867;SDS011;2960;49.142;7.768;2022-11-15T15:10:25;10.17;;;4.20;;
5867;SDS011;2960;49.142;7.768;2022-11-15T15:12:55;10.60;;;4.40;;
5867;SDS011;2960;49.142;7.768;2022-11-15T15:15:24;9.97;;;4.00;;
5867;SDS011;2960;49.142;7.768;2022-11-15T15:17:54;9.90;;;4.20;;
5867;SDS011;2960;49.142;7.768;2022-11-15T15:20:21;10.40;;;4.00;;
5867;SDS011;2960;49.142;7.768;2022-11-15T15:22:48;11.10;;;4.33;;
5867;SDS011;2960;49.142;7.768;2022-11-15T15:25:22;10.40;;;4.27;;
5867;SDS011;2960;49.142;7.768;2022-11-15T15:27:52;9.97;;;4.17;;
5867;SDS011;2960;49.142;7.768;2022-11-15T15:30:22;10.13;;;4.00;;
5867;SDS011;2960;49.142;7.768;2022-11-15T15:32:50;9.80;;;4.00;;
5867;SDS011;2960;49.142;7.768;2022-11-15T15:35:17;10.40;;;4.00;;
5867;SDS011;2960;49.142;7.768;2022-11-15T15:37:45;10.30;;;4.10;;
5867;SDS011;2960;49.142;7.768;2022-11-15T15:40:15;9.83;;;3.90;;
5867;SDS011;2960;49.142;7.768;2022-11-15T15:42:45;10.83;;;3.67;;
5867;SDS011;2960;49.142;7.768;2022-11-15T15:45:12;10.40;;;4.10;;
5867;SDS011;2960;49.142;7.768;2022-11-15T15:47:41;10.40;;;4.00;;
5867;SDS011;2960;49.142;7.768;2022-11-15T15:50:12;10.27;;;4.00;;
5867;SDS011;2960;49.142;7.768;2022-11-15T15:52:48;12.20;;;4.00;;
5867;SDS011;2960;49.142;7.768;2022-11-15T15:55:16;10.10;;;4.17;;
5867;SDS011;2960;49.142;7.768;2022-11-15T15:57:43;10.00;;;4.07;;
5867;SDS011;2960;49.142;7.768;2022-11-15T16:00:11;10.00;;;3.93;;
5867;SDS011;2960;49.142;7.768;2022-11-15T16:02:40;10.17;;;4.23;;
5867;SDS011;2960;49.142;7.768;2022-11-15T16:05:08;10.60;;;4.23;;